Flight Track Log - Related Links

Times and Time Zones

All times are in EDT time to prevent confusion due to time zone crossing. See the CSN6873 flight status page for this flight to view local times or setup timezone preferences in your user account.

Time Position Orientation Groundspeed Altitude Reporting Facility
EDT Latitude Longitude Course Direction KTS MPH feet Rate Location/Type
Wed 09:23:00 PM 43.8643 87.3796 238° Southwest  Level Estimated
Wed 09:24:00 PM 43.8214 87.2851 238° Southwest  Level Estimated
Wed 09:25:00 PM 43.7784 87.1907 238° Southwest  Level Estimated
Wed 09:26:00 PM 43.7354 87.0964 238° Southwest  Level Estimated
Wed 09:27:00 PM 43.6922 87.0023 238° Southwest  Level Estimated
Wed 09:28:00 PM 43.6490 86.9083 238° Southwest  Level Estimated
Wed 09:29:00 PM 43.5932 86.7873 238° Southwest  Level Estimated
Wed 09:30:00 PM 43.5372 86.6666 237° Southwest  Level Estimated
Wed 09:31:00 PM 43.4811 86.5460 237° Southwest  Level Estimated
Wed 09:32:00 PM 43.4249 86.4257 237° Southwest  Level Estimated
Wed 09:33:00 PM 43.3686 86.3056 237° Southwest  Level Estimated
Wed 09:34:00 PM 43.3121 86.1858 237° Southwest  Level Estimated
Wed 09:35:00 PM 43.2555 86.0661 237° Southwest  Level Estimated
Wed 09:36:00 PM 43.1988 85.9467 237° Southwest  Level Estimated
Wed 09:37:00 PM 43.1420 85.8275 237° Southwest  Level Estimated
Wed 09:38:00 PM 43.0850 85.7085 237° Southwest  Level Estimated
Wed 09:39:00 PM 43.0279 85.5898 237° Southwest  Level Estimated
Wed 09:40:00 PM 42.9707 85.4712 237° Southwest  Level Estimated
Wed 09:41:00 PM 42.9134 85.3529 237° Southwest  Level Estimated
Wed 09:42:00 PM 42.8559 85.2348 236° Southwest  Level Estimated
Wed 09:43:00 PM 42.7984 85.1169 236° Southwest  Level Estimated
Wed 09:44:00 PM 42.7407 84.9993 236° Southwest  Level Estimated
Wed 09:45:00 PM 42.6828 84.8819 236° Southwest  Level Estimated
Wed 09:46:00 PM 42.6249 84.7646 236° Southwest  Level Estimated
Wed 09:47:00 PM 42.5669 84.6476 236° Southwest  Level Estimated
Wed 09:48:00 PM 42.5087 84.5308 236° Southwest  Level Estimated
Wed 09:49:00 PM 42.4504 84.4143 236° Southwest  Level Estimated
Wed 09:50:00 PM 42.3920 84.2979 236° Southwest  Level Estimated
Wed 09:51:00 PM 42.3335 84.1818 236° Southwest  Level Estimated
Wed 09:52:00 PM 42.2748 84.0659 236° Southwest  Level Estimated
Wed 09:53:00 PM 42.2161 83.9502 236° Southwest  Level Estimated
Wed 09:54:00 PM 42.1572 83.8347 236° Southwest  Level Estimated
Wed 09:55:00 PM 42.0982 83.7194 235° Southwest  Level Estimated
Wed 09:56:00 PM 42.0391 83.6044 235° Southwest  Level Estimated
Wed 09:57:00 PM 41.9799 83.4895 235° Southwest  Level Estimated
Wed 09:58:00 PM 41.9205 83.3749 235° Southwest  Level Estimated
Wed 09:59:00 PM 41.8611 83.2605 235° Southwest  Level Estimated
Wed 10:00:00 PM 41.8015 83.1463 235° Southwest  Level Estimated
Wed 10:01:00 PM 41.7419 83.0323 235° Southwest  Level Estimated
Wed 10:02:00 PM 41.7181 82.9869 235° Southwest  Level Estimated
Wed 10:03:00 PM 41.7181 82.9869 North  Level Estimated
Wed 10:04:00 PM 41.7181 82.9869 North  Level Estimated
Wed 10:05:00 PM 41.7181 82.9869 North  Level Estimated
Wed 10:06:00 PM 41.7181 82.9869 North  Level Estimated
Wed 10:07:00 PM 41.7181 82.9869 North  Level Estimated
Wed 10:08:00 PM 41.7181 82.9869 North  Level Estimated
Wed 10:09:00 PM 41.7181 82.9869 North  Level Estimated
Wed 10:10:00 PM 41.7181 82.9869 North  Level Estimated
Wed 10:11:00 PM 41.7181 82.9869 North  Level Estimated
Wed 10:12:00 PM 41.7181 82.9869 North  Level Estimated
Wed 10:13:00 PM 41.7181 82.9869 North  Level Estimated
Wed 10:14:00 PM 41.7181 82.9869 North  Level Estimated
Wed 10:15:00 PM 41.7181 82.9869 North  Level Estimated
Wed 10:16:00 PM 41.7181 82.9869 North  Level Estimated
Wed 10:17:00 PM 41.7181 82.9869 North  Level Estimated
Wed 10:18:00 PM 41.7181 82.9869 North  Level Estimated

Login

Don't have an account? Register now (free) for customized features, flight alerts, and more!